Time;durP1;ratioP1;P1;durP2;ratioP2;P2;SDS_P1;SDS_P2;PMS_P1;PMS_P2;Temp;Humidity;BMP_temperature;BMP_pressure;BME280_temperature;BME280_humidity;BME280_pressure;Samples;Min_cycle;Max_cycle;Signal;HPM_P1;HPM_P2
2022/04/20 00:01:24;;;;;;;5.90;4.07;;;11.00;68.80;;;;;;5137450;28;20436;-86
2022/04/20 00:04:02;;;;;;;7.00;4.77;;;11.00;69.60;;;;;;5123502;28;20452;-86
2022/04/20 00:06:51;;;;;;;10.90;3.93;;;10.80;71.00;;;;;;5131049;28;20473;-88
2022/04/20 00:09:31;;;;;;;7.93;4.40;;;10.80;71.30;;;;;;5125189;28;20549;-87
2022/04/20 00:18:36;;;;;;;7.50;4.30;;;10.70;73.10;;;;;;5119081;28;20450;-87
2022/04/20 00:24:46;;;;;;;8.80;4.70;;;10.60;74.90;;;;;;5061973;28;20472;-86
2022/04/20 00:27:22;;;;;;;8.23;4.20;;;10.50;75.70;;;;;;5100536;28;20470;-86
2022/04/20 00:30:11;;;;;;;9.13;4.67;;;10.60;76.30;;;;;;5136613;28;20440;-85
2022/04/20 00:32:44;;;;;;;8.50;4.20;;;10.70;76.30;;;;;;5128783;28;20474;-86
2022/04/20 00:35:35;;;;;;;6.37;4.53;;;10.50;76.80;;;;;;5122447;28;20459;-86
2022/04/20 00:38:17;;;;;;;;;;;;;;;;;;;;;
2022/04/20 00:41:15;;;;;;;;;;;;;;;;;;;;;
2022/04/20 00:44:03;;;;;;;7.87;5.03;;;10.50;78.50;;;;;;5130890;28;20441;-86
2022/04/20 00:50:30;;;;;;;5.87;4.80;;;10.50;79.40;;;;;;5132800;28;20494;-86
2022/04/20 00:56:57;;;;;;;6.40;4.53;;;10.30;80.30;;;;;;5123983;28;20462;-85
2022/04/20 00:59:33;;;;;;;8.83;4.70;;;10.30;80.60;;;;;;5127359;28;20485;-86
2022/04/20 01:05:45;;;;;;;7.00;4.60;;;10.30;81.30;;;;;;5124697;28;20441;-86
2022/04/20 01:11:25;;;;;;;8.17;5.13;;;10.20;81.60;;;;;;5127864;28;20462;-86
2022/04/20 01:14:23;;;;;;;9.03;4.80;;;10.10;82.80;;;;;;5080594;28;20456;-86
2022/04/20 01:19:57;;;;;;;9.43;5.00;;;10.10;84.10;;;;;;5132313;28;20416;-86
2022/04/20 01:26:23;;;;;;;7.60;5.20;;;9.90;85.90;;;;;;5124484;28;20442;-84
2022/04/20 01:32:23;;;;;;;9.67;5.13;;;10.00;84.90;;;;;;5118526;28;20418;-84
2022/04/20 01:35:08;;;;;;;7.70;4.50;;;9.90;86.60;;;;;;5119061;28;20406;-84
2022/04/20 01:40:51;;;;;;;8.13;5.30;;;9.80;86.60;;;;;;5108723;28;20480;-85
2022/04/20 01:46:58;;;;;;;8.23;5.17;;;9.60;88.00;;;;;;5061494;28;20479;-85
2022/04/20 01:49:56;;;;;;;5.90;4.63;;;9.70;88.10;;;;;;5011531;28;20701;-84
2022/04/20 01:52:43;;;;;;;7.60;5.40;;;9.60;88.50;;;;;;5136331;28;20509;-84
2022/04/20 01:58:59;;;;;;;7.70;5.03;;;9.50;89.10;;;;;;5133233;28;20495;-85
2022/04/20 02:05:38;;;;;;;;;;;;;;;;;;;;;
2022/04/20 02:08:49;;;;;;;6.40;5.10;;;9.40;90.30;;;;;;5122239;28;20512;-84
2022/04/20 02:11:54;;;;;;;8.77;5.90;;;9.50;90.30;;;;;;5037056;28;21023;-84
2022/04/20 02:14:53;;;;;;;8.23;5.73;;;9.40;90.50;;;;;;5122456;28;20456;-85
2022/04/20 02:24:44;;;;;;;7.43;5.07;;;9.30;91.20;;;;;;5033731;28;20531;-86
2022/04/20 02:28:14;;;;;;;8.63;5.80;;;9.10;91.60;;;;;;5124221;28;20455;-86
2022/04/20 02:44:41;;;;;;;7.27;5.10;;;9.10;93.20;;;;;;5116377;28;20466;-85
2022/04/20 02:50:46;;;;;;;5.80;4.40;;;9.10;94.20;;;;;;5051236;28;20462;-85
2022/04/20 02:57:34;;;;;;;;;;;;;;;;;;;;;
2022/04/20 03:00:34;;;;;;;6.70;4.80;;;8.90;95.80;;;;;;5125392;28;20470;-86
2022/04/20 03:03:27;;;;;;;5.57;4.33;;;8.80;96.40;;;;;;5129664;28;20939;-86
2022/04/20 03:22:02;;;;;;;7.10;4.97;;;8.50;98.60;;;;;;5118491;28;20918;-85
2022/04/20 03:24:34;;;;;;;8.73;5.20;;;8.50;99.20;;;;;;5122322;28;20446;-84
2022/04/20 03:27:47;;;;;;;7.63;5.10;;;8.30;99.60;;;;;;5122268;28;20216;-86
2022/04/20 03:30:27;;;;;;;8.10;4.90;;;8.30;99.60;;;;;;5095814;28;20468;-86
2022/04/20 03:35:57;;;;;;;7.13;5.00;;;8.10;99.90;;;;;;5118794;28;20546;-87
2022/04/20 03:38:48;;;;;;;8.50;5.00;;;8.20;99.90;;;;;;5120268;28;20440;-85
2022/04/20 03:41:44;;;;;;;8.70;5.70;;;8.20;99.90;;;;;;5122332;28;20494;-85
2022/04/20 03:44:29;;;;;;;6.20;4.80;;;8.10;99.90;;;;;;5124238;28;20854;-85
2022/04/20 03:47:03;;;;;;;7.20;4.00;;;8.10;99.90;;;;;;5125005;28;20950;-85
2022/04/20 03:50:02;;;;;;;6.13;4.60;;;8.00;99.90;;;;;;5124406;28;20481;-85
2022/04/20 03:53:08;;;;;;;6.70;4.70;;;7.90;99.90;;;;;;5118343;28;20464;-85
2022/04/20 04:01:35;;;;;;;7.80;4.73;;;7.80;99.90;;;;;;5106538;22;20529;-86
2022/04/20 04:04:03;;;;;;;8.07;5.40;;;7.80;99.90;;;;;;5088459;28;20443;-84
2022/04/20 04:06:31;;;;;;;7.93;5.03;;;7.90;99.90;;;;;;5094354;28;20450;-87
2022/04/20 04:08:58;;;;;;;7.33;4.60;;;7.80;99.90;;;;;;5086251;28;20479;-85
2022/04/20 04:11:25;;;;;;;7.18;5.20;;;7.80;99.90;;;;;;5112088;28;20450;-85
2022/04/20 04:13:51;;;;;;;9.40;6.20;;;7.70;99.90;;;;;;5120127;28;20196;-85
2022/04/20 04:16:18;;;;;;;9.68;6.22;;;7.80;99.90;;;;;;5117928;28;20436;-86
2022/04/20 04:18:45;;;;;;;10.00;5.73;;;7.80;99.90;;;;;;5117555;28;20272;-85
2022/04/20 04:21:12;;;;;;;9.27;5.50;;;7.70;99.90;;;;;;5117565;28;20573;-87
2022/04/20 04:23:42;;;;;;;6.72;5.43;;;7.70;99.90;;;;;;5113253;28;20455;-87
2022/04/20 04:26:09;;;;;;;8.83;5.97;;;7.60;99.90;;;;;;5102044;28;20640;-87
2022/04/20 04:28:36;;;;;;;6.82;4.43;;;7.60;99.90;;;;;;5102939;28;20551;-86
2022/04/20 04:31:03;;;;;;;7.53;6.10;;;7.60;99.90;;;;;;5111324;28;20229;-87
2022/04/20 04:33:31;;;;;;;7.68;5.72;;;7.60;99.90;;;;;;5103951;28;20538;-86
2022/04/20 04:36:01;;;;;;;8.10;5.70;;;7.60;99.90;;;;;;5104093;28;20739;-87
2022/04/20 04:38:28;;;;;;;8.67;5.50;;;7.60;99.90;;;;;;5110677;28;20197;-87
2022/04/20 04:40:56;;;;;;;8.00;6.10;;;7.60;99.90;;;;;;5119706;28;20474;-83
2022/04/20 04:43:23;;;;;;;10.68;5.32;;;7.70;99.90;;;;;;5115239;28;20454;-86
2022/04/20 04:48:38;;;;;;;10.30;6.00;;;7.70;99.90;;;;;;5111896;28;20211;-84
2022/04/20 04:51:06;;;;;;;11.82;6.13;;;7.60;99.90;;;;;;5098666;28;20474;-85
2022/04/20 04:53:33;;;;;;;10.38;6.32;;;7.60;99.90;;;;;;5098723;28;20324;-85
2022/04/20 04:56:03;;;;;;;9.13;5.50;;;7.40;99.90;;;;;;5098080;28;20281;-86
2022/04/20 04:58:32;;;;;;;8.35;5.28;;;7.40;99.90;;;;;;5102855;28;20247;-85
2022/04/20 05:01:03;;;;;;;8.57;6.20;;;7.40;99.90;;;;;;5098832;28;20232;-84
2022/04/20 05:03:30;;;;;;;8.80;5.25;;;7.40;99.90;;;;;;5099920;28;20534;-85
2022/04/20 05:05:57;;;;;;;7.83;5.57;;;7.40;99.90;;;;;;5100098;28;20205;-86
2022/04/20 05:08:24;;;;;;;10.25;5.90;;;7.50;99.90;;;;;;5100199;28;20560;-85
2022/04/20 05:10:52;;;;;;;8.48;5.88;;;7.50;99.90;;;;;;5102737;28;20743;-86
2022/04/20 05:13:20;;;;;;;8.60;6.18;;;7.60;99.90;;;;;;5113510;28;20208;-85
2022/04/20 05:15:47;;;;;;;11.65;6.18;;;7.50;99.90;;;;;;5116518;28;20201;-85
2022/04/20 05:18:14;;;;;;;10.05;5.65;;;7.50;99.90;;;;;;5101490;28;20684;-87
2022/04/20 05:20:41;;;;;;;7.78;5.55;;;7.60;99.90;;;;;;5100653;28;20284;-84
2022/04/20 05:23:09;;;;;;;13.43;6.95;;;7.70;99.90;;;;;;5100426;28;20645;-86
2022/04/20 05:25:36;;;;;;;13.68;6.45;;;7.70;99.90;;;;;;5100701;28;20212;-86
2022/04/20 05:28:30;;;;;;;11.93;6.40;;;7.70;99.90;;;;;;5100368;28;20630;-86
2022/04/20 05:31:08;;;;;;;8.97;6.00;;;7.70;99.90;;;;;;5099598;28;20888;-85
2022/04/20 05:33:52;;;;;;;10.37;6.57;;;7.80;99.90;;;;;;5099250;28;20457;-84
2022/04/20 05:43:10;;;;;;;8.27;5.90;;;7.90;99.90;;;;;;5113061;28;20463;-86
2022/04/20 05:52:43;;;;;;;8.00;4.73;;;8.10;99.90;;;;;;5105133;28;20434;-87
2022/04/20 05:55:38;;;;;;;8.70;5.80;;;8.20;99.90;;;;;;4982679;28;20502;-86
2022/04/20 05:58:40;;;;;;;11.10;5.90;;;8.40;99.90;;;;;;5102475;28;20438;-85
2022/04/20 06:01:17;;;;;;;8.00;5.47;;;8.40;99.90;;;;;;5103103;28;20496;-85
2022/04/20 06:03:45;;;;;;;6.80;5.40;;;8.30;99.90;;;;;;5102345;28;20498;-86
2022/04/20 06:06:14;;;;;;;8.37;5.50;;;8.40;99.90;;;;;;5099646;28;20450;-85
2022/04/20 06:08:41;;;;;;;10.83;4.80;;;8.40;99.90;;;;;;5098906;28;20450;-85
2022/04/20 06:11:09;;;;;;;10.33;5.10;;;8.40;99.90;;;;;;5099066;28;20861;-86
2022/04/20 06:13:36;;;;;;;7.93;5.03;;;8.50;99.50;;;;;;5098198;28;20455;-85
2022/04/20 06:16:07;;;;;;;7.53;5.60;;;8.40;99.30;;;;;;5100037;28;20435;-86
2022/04/20 06:18:37;;;;;;;7.30;4.50;;;8.50;98.80;;;;;;5107725;28;20492;-86
2022/04/20 06:21:05;;;;;;;10.30;5.00;;;8.60;98.50;;;;;;5108165;28;20516;-86
2022/04/20 06:23:42;;;;;;;7.57;4.97;;;8.70;98.40;;;;;;5104833;28;20458;-85
2022/04/20 06:26:37;;;;;;;7.80;5.10;;;8.70;97.50;;;;;;5104622;28;20450;-87
2022/04/20 06:29:06;;;;;;;7.40;4.33;;;9.00;97.50;;;;;;5103728;28;20546;-86
2022/04/20 06:31:56;;;;;;;7.33;4.30;;;9.10;96.20;;;;;;5104947;28;20474;-84
2022/04/20 06:38:20;;;;;;;11.07;5.20;;;9.00;95.80;;;;;;5001730;28;20885;-86
2022/04/20 06:40:52;;;;;;;9.00;4.47;;;9.10;95.50;;;;;;5023763;28;20474;-85
2022/04/20 06:43:22;;;;;;;6.77;4.53;;;9.10;95.00;;;;;;5089934;28;20515;-84
2022/04/20 06:45:51;;;;;;;6.60;3.83;;;9.20;95.10;;;;;;5101146;28;20420;-84
2022/04/20 06:48:17;;;;;;;7.93;3.60;;;9.40;94.30;;;;;;5100578;28;20477;-85
2022/04/20 06:50:45;;;;;;;6.47;4.30;;;9.40;93.50;;;;;;5099531;28;20516;-86
2022/04/20 06:59:19;;;;;;;5.90;3.73;;;9.60;93.10;;;;;;5103299;28;20414;-85
2022/04/20 07:01:52;;;;;;;5.37;3.70;;;9.40;93.00;;;;;;5113367;28;20493;-85
2022/04/20 07:04:19;;;;;;;5.47;4.23;;;9.30;92.90;;;;;;5102889;28;20442;-84
2022/04/20 07:06:46;;;;;;;10.30;4.03;;;9.50;92.80;;;;;;5100417;28;20824;-85
2022/04/20 07:09:28;;;;;;;6.63;4.23;;;9.50;92.40;;;;;;5099444;28;20449;-84
2022/04/20 07:12:04;;;;;;;6.37;4.10;;;9.60;92.40;;;;;;5099433;28;20446;-85
2022/04/20 07:14:36;;;;;;;4.27;3.33;;;9.50;92.40;;;;;;5100772;28;20469;-87
2022/04/20 07:20:04;;;;;;;7.60;4.03;;;9.50;92.50;;;;;;5103891;28;20462;-86
2022/04/20 07:22:42;;;;;;;9.30;3.97;;;9.80;92.30;;;;;;5118298;28;20438;-85
2022/04/20 07:25:15;;;;;;;5.83;3.47;;;9.70;91.80;;;;;;5121044;28;20431;-82
2022/04/20 07:28:00;;;;;;;5.60;2.90;;;9.80;91.80;;;;;;5112268;28;20427;-84
2022/04/20 07:31:04;;;;;;;8.43;4.17;;;10.00;90.80;;;;;;5115740;28;20537;-84
2022/04/20 07:33:59;;;;;;;7.03;4.27;;;10.10;90.00;;;;;;5112933;28;20470;-85
2022/04/20 07:36:58;;;;;;;9.40;4.60;;;10.10;89.80;;;;;;5106898;28;20435;-84
2022/04/20 07:42:38;;;;;;;7.67;4.07;;;10.00;90.20;;;;;;5099249;28;20438;-85
2022/04/20 07:45:32;;;;;;;6.77;4.17;;;10.10;89.80;;;;;;5105341;28;20536;-86
2022/04/20 07:48:18;;;;;;;6.50;3.87;;;10.10;88.80;;;;;;5100250;28;20523;-87
2022/04/20 07:50:55;;;;;;;5.57;3.77;;;10.20;88.80;;;;;;5102932;28;20478;-86
2022/04/20 07:53:33;;;;;;;6.10;4.10;;;10.30;89.70;;;;;;5102380;28;20466;-86
2022/04/20 07:56:07;;;;;;;10.67;4.40;;;10.30;89.70;;;;;;5103983;28;20425;-85
2022/04/20 07:58:47;;;;;;;7.00;4.60;;;10.50;90.10;;;;;;5106701;28;20597;-87
2022/04/20 08:01:19;;;;;;;6.60;4.80;;;10.80;89.60;;;;;;5102266;28;20488;-86
2022/04/20 08:03:48;;;;;;;7.27;4.30;;;10.70;89.00;;;;;;5103406;28;20422;-85
2022/04/20 08:06:31;;;;;;;9.93;4.83;;;10.90;87.30;;;;;;5101207;28;20455;-85
2022/04/20 08:09:01;;;;;;;11.10;4.27;;;11.10;86.80;;;;;;5100925;28;20458;-86
2022/04/20 08:11:30;;;;;;;8.07;4.90;;;11.00;86.10;;;;;;5102008;28;20549;-86
2022/04/20 08:14:13;;;;;;;6.80;4.83;;;11.10;86.80;;;;;;5102789;28;20918;-86
2022/04/20 08:16:48;;;;;;;10.37;4.63;;;11.20;86.00;;;;;;5101787;28;20401;-84
2022/04/20 08:19:17;;;;;;;6.40;3.97;;;11.50;84.70;;;;;;5103217;28;20928;-83
2022/04/20 08:21:44;;;;;;;5.70;4.23;;;11.50;83.10;;;;;;5114967;28;20426;-85
2022/04/20 08:24:11;;;;;;;6.20;3.77;;;11.30;83.20;;;;;;5117765;28;20439;-86
2022/04/20 08:26:55;;;;;;;6.20;4.30;;;11.10;83.20;;;;;;5116614;28;20413;-85
2022/04/20 08:29:28;;;;;;;7.03;4.10;;;11.10;83.80;;;;;;5110178;28;20439;-86
2022/04/20 08:32:08;;;;;;;4.47;3.40;;;11.20;83.90;;;;;;5102951;28;20478;-85
2022/04/20 08:34:35;;;;;;;5.90;3.20;;;11.30;84.00;;;;;;5100891;28;21016;-85
2022/04/20 08:37:03;;;;;;;9.40;4.73;;;11.30;84.80;;;;;;5104265;28;20542;-86
2022/04/20 08:39:30;;;;;;;6.37;3.77;;;11.30;85.50;;;;;;5102779;28;20457;-85
2022/04/20 08:42:04;;;;;;;6.50;3.80;;;11.40;85.50;;;;;;5101994;28;20473;-85
2022/04/20 08:44:36;;;;;;;5.80;3.97;;;11.40;86.10;;;;;;5102628;28;20439;-85
2022/04/20 08:47:26;;;;;;;7.17;4.30;;;11.50;86.40;;;;;;5101549;28;20532;-84
2022/04/20 08:49:55;;;;;;;6.60;5.10;;;11.60;85.50;;;;;;5109379;28;20490;-84
2022/04/20 08:55:33;;;;;;;7.20;4.20;;;11.60;85.20;;;;;;5092235;28;20437;-86
2022/04/20 08:58:12;;;;;;;5.80;3.93;;;11.40;85.20;;;;;;5102455;28;20782;-86
2022/04/20 09:00:58;;;;;;;6.43;4.33;;;11.40;85.50;;;;;;5101195;28;20478;-86
2022/04/20 09:03:35;;;;;;;6.27;4.00;;;11.40;85.70;;;;;;5101249;28;20458;-86
2022/04/20 09:06:09;;;;;;;6.97;4.40;;;11.70;83.70;;;;;;5101713;28;20411;-88
2022/04/20 09:08:38;;;;;;;6.07;4.53;;;11.90;82.90;;;;;;5101461;28;20439;-85
2022/04/20 09:11:05;;;;;;;6.80;4.53;;;11.90;82.30;;;;;;5100880;28;20483;-84
2022/04/20 09:13:47;;;;;;;7.87;4.67;;;12.00;81.90;;;;;;5105405;28;20472;-84
2022/04/20 09:16:21;;;;;;;7.87;4.40;;;12.10;79.70;;;;;;5102053;28;20839;-85
2022/04/20 09:18:52;;;;;;;6.67;3.93;;;12.30;79.50;;;;;;5101236;28;20441;-86
2022/04/20 09:21:34;;;;;;;7.20;4.10;;;12.50;78.00;;;;;;5101241;28;20862;-86
2022/04/20 09:27:00;;;;;;;4.27;1.80;;;12.40;75.50;;;;;;5093492;28;20442;-84
2022/04/20 09:29:38;;;;;;;5.40;3.37;;;12.30;74.60;;;;;;5101953;28;20784;-85
2022/04/20 09:32:11;;;;;;;5.70;3.23;;;12.10;75.00;;;;;;5102703;28;20767;-85
2022/04/20 09:34:58;;;;;;;6.27;2.50;;;12.30;75.20;;;;;;5100978;28;20431;-86
2022/04/20 09:37:27;;;;;;;5.37;3.17;;;12.20;73.00;;;;;;5105897;28;20439;-86
2022/04/20 09:39:56;;;;;;;8.20;3.77;;;12.20;73.40;;;;;;5107589;22;20504;-86
2022/04/20 09:42:26;;;;;;;6.00;3.53;;;12.40;73.60;;;;;;5093800;28;20420;-84
2022/04/20 09:45:05;;;;;;;6.33;3.50;;;12.50;73.00;;;;;;5094505;28;20446;-86
2022/04/20 09:51:11;;;;;;;4.07;2.60;;;12.60;72.70;;;;;;5085381;28;20459;-86
2022/04/20 09:53:45;;;;;;;5.83;3.63;;;12.90;69.00;;;;;;5082825;28;20430;-86
2022/04/20 09:56:20;;;;;;;4.73;2.57;;;12.70;68.70;;;;;;5080671;28;20414;-84
2022/04/20 09:59:15;;;;;;;5.50;3.60;;;12.70;67.90;;;;;;5083772;28;20556;-86
2022/04/20 10:01:57;;;;;;;6.10;3.23;;;12.80;67.40;;;;;;5051157;28;20521;-85
2022/04/20 10:04:50;;;;;;;;;;;;;;;;;;;;;
2022/04/20 10:07:59;;;;;;;5.17;3.33;;;12.90;66.90;;;;;;5085635;28;20435;-86
2022/04/20 10:10:39;;;;;;;7.07;3.77;;;12.80;63.80;;;;;;5092772;28;20549;-82
2022/04/20 10:13:11;;;;;;;7.50;3.60;;;12.90;61.60;;;;;;5093653;28;20443;-83
2022/04/20 10:16:08;;;;;;;5.43;3.53;;;12.80;64.00;;;;;;5095606;28;20379;-82
2022/04/20 10:18:43;;;;;;;4.90;2.60;;;12.80;63.70;;;;;;5093250;28;20564;-83
2022/04/20 10:37:59;;;;;;;6.33;3.87;;;13.20;61.50;;;;;;4884016;29;20408;-87
2022/04/20 10:44:17;;;;;;;4.10;2.53;;;13.20;63.00;;;;;;4922613;29;20439;-86
2022/04/20 11:48:45;;;;;;;11.47;4.10;;;14.00;56.00;;;;;;4915353;28;20852;-87
2022/04/20 13:50:31;;;;;;;6.60;4.40;;;15.70;48.00;;;;;;5022384;28;20474;-85
2022/04/20 14:14:30;;;;;;;6.30;2.73;;;16.00;47.60;;;;;;4990315;28;20433;-86
2022/04/20 14:17:26;;;;;;;5.27;3.67;;;15.90;46.70;;;;;;4977597;28;20445;-86
2022/04/20 14:20:46;;;;;;;5.10;2.90;;;15.90;46.30;;;;;;4981134;28;20456;-87
2022/04/20 14:23:56;;;;;;;6.37;3.63;;;16.10;46.60;;;;;;4928339;29;20548;-86
2022/04/20 14:43:22;;;;;;;6.23;3.70;;;16.40;46.90;;;;;;5157564;23;20537;-88
2022/04/20 14:49:34;;;;;;;6.83;3.50;;;16.60;46.90;;;;;;5089386;28;20585;-86
2022/04/20 14:52:17;;;;;;;4.80;3.60;;;16.60;47.50;;;;;;5067274;28;20499;-88
2022/04/20 14:57:54;;;;;;;5.53;2.93;;;17.00;46.40;;;;;;5088647;28;20443;-88
2022/04/20 15:00:59;;;;;;;4.93;3.30;;;17.20;46.30;;;;;;5091161;28;20511;-86
2022/04/20 15:03:52;;;;;;;5.67;2.83;;;17.10;46.40;;;;;;5064294;28;20513;-87
2022/04/20 15:06:33;;;;;;;;;;;;;;;;;;;;;
2022/04/20 15:17:47;;;;;;;6.10;3.77;;;17.90;45.70;;;;;;3143128;22;20487;-88
2022/04/20 15:41:51;;;;;;;6.80;3.90;;;18.30;44.40;;;;;;4889564;29;20459;-87
2022/04/20 16:23:22;;;;;;;5.47;3.50;;;16.60;48.60;;;;;;5211129;23;20499;-84
2022/04/20 16:25:49;;;;;;;5.00;3.53;;;16.60;48.30;;;;;;5062829;28;20463;-84
2022/04/20 16:28:16;;;;;;;6.83;4.00;;;16.40;48.20;;;;;;5062833;28;20457;-85
2022/04/20 16:30:44;;;;;;;4.90;3.03;;;16.40;48.70;;;;;;5062788;28;20602;-83
2022/04/20 16:33:18;;;;;;;6.90;3.63;;;16.30;49.00;;;;;;5076750;28;20479;-84
2022/04/20 16:35:45;;;;;;;4.77;3.63;;;16.20;49.10;;;;;;5085137;28;20422;-84
2022/04/20 16:38:12;;;;;;;5.30;3.83;;;16.30;48.80;;;;;;5089883;28;20433;-82
2022/04/20 16:40:41;;;;;;;6.60;4.80;;;16.20;48.70;;;;;;5095589;28;20448;-83
2022/04/20 16:43:08;;;;;;;7.03;4.10;;;16.20;49.20;;;;;;5089390;28;20585;-84
2022/04/20 16:45:37;;;;;;;6.43;4.13;;;16.30;49.10;;;;;;5083722;28;20457;-84
2022/04/20 16:48:04;;;;;;;6.33;4.60;;;16.20;49.70;;;;;;5086048;28;20924;-84
2022/04/20 16:50:31;;;;;;;6.03;3.87;;;16.10;50.10;;;;;;5084329;28;20422;-84
2022/04/20 16:52:58;;;;;;;4.97;3.60;;;16.20;50.50;;;;;;5082991;28;20548;-84
2022/04/20 16:55:25;;;;;;;5.53;3.73;;;16.00;49.70;;;;;;5082332;28;20444;-86
2022/04/20 16:57:53;;;;;;;8.57;4.50;;;16.00;49.70;;;;;;5085145;28;20459;-85
2022/04/20 17:00:20;;;;;;;6.47;4.63;;;15.90;49.60;;;;;;5089144;28;20508;-85
2022/04/20 17:02:48;;;;;;;5.17;3.20;;;15.90;49.40;;;;;;5085482;28;20434;-85
2022/04/20 17:05:14;;;;;;;4.93;3.40;;;15.80;49.10;;;;;;5083773;28;20460;-85
2022/04/20 17:07:41;;;;;;;5.33;3.67;;;15.80;49.40;;;;;;5087531;28;20513;-85
2022/04/20 17:10:10;;;;;;;5.00;3.50;;;15.90;49.30;;;;;;5083528;28;20485;-87
2022/04/20 17:12:37;;;;;;;5.40;3.70;;;15.70;49.00;;;;;;5086918;28;20546;-89
2022/04/20 17:15:08;;;;;;;5.77;3.67;;;15.80;49.20;;;;;;5088060;28;20459;-89
2022/04/20 17:17:38;;;;;;;5.47;3.37;;;15.70;48.70;;;;;;5086429;28;20448;-88
2022/04/20 17:28:20;;;;;;;5.33;3.20;;;15.60;49.10;;;;;;5081669;28;20458;-86
2022/04/20 17:30:49;;;;;;;5.90;3.70;;;15.50;49.10;;;;;;5083396;28;20502;-85
2022/04/20 17:33:15;;;;;;;5.30;3.37;;;15.50;49.10;;;;;;5084648;28;20496;-86
2022/04/20 17:38:27;;;;;;;5.60;4.00;;;15.50;49.10;;;;;;5083754;28;20416;-85
2022/04/20 17:40:55;;;;;;;6.07;4.47;;;15.40;49.80;;;;;;5089277;28;20448;-86
2022/04/20 17:43:22;;;;;;;6.43;4.00;;;15.50;50.60;;;;;;5085880;28;20438;-86
2022/04/20 17:45:51;;;;;;;7.13;4.50;;;15.60;50.50;;;;;;5090440;28;20530;-86
2022/04/20 17:48:20;;;;;;;6.60;5.07;;;15.60;50.50;;;;;;5097382;28;20422;-86
2022/04/20 17:50:47;;;;;;;11.80;4.90;;;15.50;50.70;;;;;;5097430;28;20432;-85
2022/04/20 17:53:14;;;;;;;5.97;4.40;;;15.60;50.70;;;;;;5085578;28;20506;-86
2022/04/20 17:55:41;;;;;;;7.20;4.40;;;15.60;50.40;;;;;;5083530;28;20455;-85
2022/04/20 17:58:08;;;;;;;6.40;4.83;;;15.50;50.20;;;;;;5082256;28;20450;-85
2022/04/20 18:00:35;;;;;;;7.07;5.00;;;15.50;50.20;;;;;;5085023;28;20470;-84
2022/04/20 18:03:03;;;;;;;8.67;6.00;;;15.50;50.60;;;;;;5093864;28;20520;-86
2022/04/20 18:05:30;;;;;;;12.40;7.37;;;15.40;50.50;;;;;;5092404;28;20430;-86
2022/04/20 18:07:59;;;;;;;9.53;5.53;;;15.30;50.80;;;;;;5085811;28;20455;-87
2022/04/20 18:10:26;;;;;;;6.60;4.40;;;15.20;50.80;;;;;;5083717;28;20458;-86
2022/04/20 18:12:53;;;;;;;6.57;4.50;;;15.20;50.30;;;;;;5089714;28;20473;-85
2022/04/20 18:15:20;;;;;;;7.73;4.90;;;15.20;50.50;;;;;;5094228;28;20550;-84
2022/04/20 18:17:47;;;;;;;6.33;4.20;;;15.30;50.50;;;;;;5083542;28;20483;-84
2022/04/20 18:20:16;;;;;;;5.70;4.13;;;15.20;50.70;;;;;;5080508;28;20406;-86
2022/04/20 18:22:43;;;;;;;6.70;3.53;;;15.10;50.80;;;;;;5077647;28;20475;-84
2022/04/20 18:25:11;;;;;;;5.43;3.50;;;15.20;50.90;;;;;;5078853;28;20470;-85
2022/04/20 18:27:40;;;;;;;6.13;3.70;;;15.10;50.90;;;;;;5078473;28;20498;-88
2022/04/20 18:30:08;;;;;;;5.23;3.43;;;15.00;51.10;;;;;;5079595;28;20391;-85
2022/04/20 18:32:35;;;;;;;6.83;3.90;;;14.90;51.30;;;;;;5079117;28;20519;-85
2022/04/20 18:35:02;;;;;;;8.13;4.00;;;15.00;51.30;;;;;;5088028;28;20476;-86
2022/04/20 18:37:33;;;;;;;5.20;4.20;;;15.00;51.40;;;;;;5095948;28;20415;-86
2022/04/20 18:40:01;;;;;;;5.73;3.67;;;14.80;51.70;;;;;;5092242;28;20436;-86
2022/04/20 18:42:29;;;;;;;6.73;3.80;;;14.80;51.90;;;;;;5090891;28;20515;-86
2022/04/20 18:44:58;;;;;;;8.20;4.17;;;14.70;52.10;;;;;;5093158;28;20451;-86
2022/04/20 18:47:28;;;;;;;6.17;4.20;;;14.70;52.30;;;;;;5079072;28;20422;-86
2022/04/20 18:49:55;;;;;;;7.73;5.00;;;14.70;52.60;;;;;;5080197;28;20427;-87
2022/04/20 18:52:22;;;;;;;9.83;4.27;;;14.50;52.90;;;;;;5078885;28;20466;-84
2022/04/20 18:57:49;;;;;;;8.70;4.20;;;14.30;54.70;;;;;;5078980;28;20511;-87
2022/04/20 19:00:18;;;;;;;10.30;4.60;;;14.30;54.80;;;;;;5079765;28;20415;-85
2022/04/20 19:02:45;;;;;;;7.27;4.10;;;14.30;55.10;;;;;;5081362;28;20529;-86
2022/04/20 19:05:14;;;;;;;8.30;4.50;;;14.20;55.30;;;;;;5078803;28;20487;-86
2022/04/20 19:07:42;;;;;;;8.07;3.80;;;14.10;55.40;;;;;;5079304;28;20422;-86
2022/04/20 19:10:11;;;;;;;7.40;4.50;;;14.10;55.90;;;;;;5080562;28;20476;-86
2022/04/20 19:12:39;;;;;;;11.07;4.50;;;14.00;55.90;;;;;;5080467;28;20460;-86
2022/04/20 19:15:17;;;;;;;8.80;5.00;;;13.90;56.20;;;;;;5087408;28;20538;-86
2022/04/20 19:17:45;;;;;;;6.57;4.27;;;13.90;57.00;;;;;;5087889;28;20470;-85
2022/04/20 19:20:13;;;;;;;8.27;4.20;;;13.90;57.40;;;;;;5091070;28;20449;-84
2022/04/20 19:22:40;;;;;;;9.50;4.60;;;13.80;57.50;;;;;;5092694;28;20479;-85
2022/04/20 19:25:08;;;;;;;7.20;4.30;;;13.70;58.20;;;;;;5096345;28;20478;-86
2022/04/20 19:27:37;;;;;;;13.33;4.70;;;13.70;59.20;;;;;;5093544;28;20504;-82
2022/04/20 19:30:06;;;;;;;9.67;5.83;;;13.70;59.60;;;;;;5100141;28;20426;-86
2022/04/20 19:32:33;;;;;;;5.60;4.30;;;13.70;59.10;;;;;;5094892;28;20469;-87
2022/04/20 19:35:01;;;;;;;7.67;5.37;;;13.60;59.30;;;;;;5087719;28;20419;-87
2022/04/20 19:37:28;;;;;;;7.90;4.97;;;13.60;59.70;;;;;;5084923;28;20463;-85
2022/04/20 19:39:57;;;;;;;6.90;5.00;;;13.50;60.00;;;;;;5083851;28;20437;-87
2022/04/20 19:42:25;;;;;;;9.20;5.30;;;13.50;60.50;;;;;;5088893;28;20530;-86
2022/04/20 19:44:54;;;;;;;7.77;4.20;;;13.40;60.20;;;;;;5087007;28;20457;-87
2022/04/20 19:47:21;;;;;;;7.00;4.50;;;13.30;60.10;;;;;;5083848;28;20458;-87
2022/04/20 19:49:48;;;;;;;11.37;4.90;;;13.30;60.40;;;;;;5092334;28;20815;-87
2022/04/20 19:52:16;;;;;;;7.07;4.30;;;13.20;60.50;;;;;;5084145;28;20948;-87
2022/04/20 19:54:43;;;;;;;6.33;4.10;;;13.10;60.70;;;;;;5084154;28;20459;-87
2022/04/20 19:57:11;;;;;;;6.63;4.73;;;13.00;60.70;;;;;;5084007;28;20457;-87
2022/04/20 19:59:41;;;;;;;8.43;4.57;;;12.90;61.00;;;;;;5084368;28;20422;-85
2022/04/20 20:02:14;;;;;;;6.13;4.30;;;12.90;61.30;;;;;;5085233;28;20494;-86
2022/04/20 20:04:44;;;;;;;9.17;4.03;;;13.00;61.70;;;;;;5095227;28;20406;-82
2022/04/20 20:07:14;;;;;;;11.63;5.07;;;12.90;61.80;;;;;;5100029;28;20427;-85
2022/04/20 20:09:41;;;;;;;7.83;4.77;;;12.90;62.10;;;;;;5099081;28;20407;-86
2022/04/20 20:12:19;;;;;;;7.43;4.77;;;12.70;62.10;;;;;;5166523;23;20577;-88
2022/04/20 20:14:47;;;;;;;6.60;4.30;;;12.70;62.20;;;;;;5083151;28;20493;-87
2022/04/20 20:17:21;;;;;;;6.57;4.23;;;12.60;62.70;;;;;;5082106;28;20427;-88
2022/04/20 20:19:52;;;;;;;6.80;4.70;;;12.60;62.90;;;;;;5082499;28;20452;-88
2022/04/20 20:22:22;;;;;;;6.30;4.40;;;12.50;63.10;;;;;;5080623;28;20535;-87
2022/04/20 20:30:24;;;;;;;8.00;4.93;;;12.40;63.90;;;;;;5080889;28;20415;-87
2022/04/20 20:32:52;;;;;;;9.37;7.00;;;12.30;64.40;;;;;;5081940;28;20515;-85
2022/04/20 20:35:19;;;;;;;11.70;5.20;;;12.30;64.80;;;;;;5084581;28;20427;-87
2022/04/20 20:37:47;;;;;;;9.83;4.83;;;12.30;65.10;;;;;;5083987;28;20459;-85
2022/04/20 20:40:14;;;;;;;9.70;4.40;;;12.20;65.30;;;;;;5082767;28;20430;-85
2022/04/20 20:42:45;;;;;;;8.17;4.97;;;12.20;65.40;;;;;;5088909;28;20459;-87
2022/04/20 20:45:12;;;;;;;8.57;5.83;;;12.10;65.50;;;;;;5082021;28;20436;-85
2022/04/20 20:47:41;;;;;;;6.10;4.60;;;12.00;66.00;;;;;;5080597;28;20506;-87
2022/04/20 20:52:57;;;;;;;9.23;5.40;;;11.90;66.70;;;;;;5079487;28;20487;-86
2022/04/20 20:55:34;;;;;;;12.13;6.33;;;11.70;67.10;;;;;;5080868;28;20482;-85
2022/04/20 20:58:24;;;;;;;10.00;5.90;;;11.70;67.70;;;;;;5081341;28;20451;-85
2022/04/20 21:00:53;;;;;;;9.23;6.50;;;11.60;68.30;;;;;;5082868;28;20537;-87
2022/04/20 21:03:27;;;;;;;12.50;5.80;;;11.70;68.60;;;;;;5084346;28;20471;-85
2022/04/20 21:06:15;;;;;;;9.60;4.97;;;11.60;69.00;;;;;;5085115;28;20464;-86
2022/04/20 21:08:45;;;;;;;8.07;5.17;;;11.60;69.90;;;;;;5098784;28;20498;-87
2022/04/20 21:11:14;;;;;;;8.50;5.67;;;11.60;70.60;;;;;;5096538;28;20405;-87
2022/04/20 21:13:42;;;;;;;7.70;6.00;;;11.50;70.70;;;;;;5084147;28;20458;-85
2022/04/20 21:16:11;;;;;;;8.10;5.67;;;11.60;70.80;;;;;;5090288;28;20432;-87
2022/04/20 21:18:38;;;;;;;7.27;5.50;;;11.60;70.90;;;;;;5095781;28;20443;-86
2022/04/20 21:21:09;;;;;;;7.10;4.90;;;11.50;70.60;;;;;;5095100;28;20456;-86
2022/04/20 21:23:39;;;;;;;9.00;4.70;;;11.50;70.80;;;;;;5092846;28;20471;-85
2022/04/20 21:26:06;;;;;;;8.30;4.77;;;11.50;70.70;;;;;;5094153;28;20454;-85
2022/04/20 21:28:33;;;;;;;12.93;5.70;;;11.50;71.30;;;;;;5077987;28;20547;-84
2022/04/20 21:31:00;;;;;;;9.00;5.30;;;11.40;72.10;;;;;;5078904;28;21017;-84
2022/04/20 21:33:27;;;;;;;12.20;5.37;;;11.30;72.90;;;;;;5079303;28;20548;-85
2022/04/20 21:35:55;;;;;;;6.60;5.00;;;11.20;73.50;;;;;;5081852;28;20781;-86